Time;durP1;ratioP1;P1;durP2;ratioP2;P2;SDS_P1;SDS_P2;PMS_P1;PMS_P2;Temp;Humidity;BMP_temperature;BMP_pressure;BME280_temperature;BME280_humidity;BME280_pressure;Samples;Min_cycle;Max_cycle;Signal;HPM_P1;HPM_P2
2023/07/05 00:01:19;;;;;;;17.40;13.07;;;;;;;23.86;100.00;100638.72;21212335;27;20050;-79
2023/07/05 00:11:42;;;;;;;16.20;13.50;;;;;;;23.74;100.00;100627.53;21200031;27;20046;-81
2023/07/05 00:22:06;;;;;;;16.33;12.63;;;;;;;23.72;100.00;100617.72;21186909;27;20104;-80
2023/07/05 00:32:30;;;;;;;21.10;14.13;;;;;;;23.71;100.00;100613.28;21203944;27;20433;-80
2023/07/05 00:42:55;;;;;;;18.80;14.00;;;;;;;23.53;100.00;100600.53;21184768;27;20142;-80
2023/07/05 00:53:19;;;;;;;18.50;13.90;;;;;;;23.50;100.00;100598.00;21166107;27;20057;-81
2023/07/05 01:03:50;;;;;;;17.42;13.73;;;;;;;23.37;100.00;100603.81;21196907;27;20065;-80
2023/07/05 01:14:20;;;;;;;18.65;13.68;;;;;;;23.30;100.00;100598.75;21216955;27;20057;-79
2023/07/05 01:25:07;;;;;;;16.38;14.02;;;;;;;23.02;100.00;100591.75;21170070;27;20091;-79
2023/07/05 01:35:38;;;;;;;17.58;14.18;;;;;;;23.16;100.00;100587.63;21216374;27;20115;-80
2023/07/05 01:46:21;;;;;;;16.27;14.23;;;;;;;23.10;100.00;100588.75;21192387;27;20055;-79
2023/07/05 01:56:53;;;;;;;22.90;14.50;;;;;;;23.10;100.00;100590.56;21195719;27;20546;-80
2023/07/05 02:07:16;;;;;;;17.80;14.30;;;;;;;22.93;100.00;100584.00;21176593;27;20694;-80
2023/07/05 02:17:40;;;;;;;17.55;15.13;;;;;;;22.92;100.00;100586.75;21190318;27;20055;-80
2023/07/05 02:28:07;;;;;;;18.48;14.60;;;;;;;22.79;100.00;100582.75;21179305;27;20047;-80
2023/07/05 02:38:11;;;;;;;17.92;15.07;;;;;;;22.80;100.00;100579.13;21226273;27;20388;-80
2023/07/05 02:48:33;;;;;;;18.95;14.75;;;;;;;22.83;100.00;100574.53;21190829;27;20127;-81
2023/07/05 02:58:58;;;;;;;19.08;15.10;;;;;;;22.79;100.00;100569.28;21198285;27;20043;-80
2023/07/05 03:09:20;;;;;;;20.35;15.45;;;;;;;22.64;100.00;100573.44;21227735;27;20103;-79
2023/07/05 03:19:45;;;;;;;17.63;15.32;;;;;;;22.67;100.00;100576.88;21079893;27;20601;-80
2023/07/05 03:30:10;;;;;;;19.00;13.60;;;;;;;22.78;100.00;100570.22;21214061;27;20138;-81
2023/07/05 03:40:36;;;;;;;16.10;13.00;;;;;;;23.05;100.00;100572.75;21163770;27;20435;-80
2023/07/05 03:51:00;;;;;;;15.23;11.45;;;;;;;23.34;100.00;100571.63;21192958;27;20093;-81
2023/07/05 04:01:27;;;;;;;13.75;10.70;;;;;;;23.68;100.00;100590.03;21102742;27;20042;-80
2023/07/05 04:11:49;;;;;;;13.18;10.52;;;;;;;24.11;100.00;100589.09;21218100;27;20499;-80
2023/07/05 04:22:13;;;;;;;14.82;10.13;;;;;;;24.71;100.00;100587.38;21147181;27;20067;-80
2023/07/05 04:32:16;;;;;;;13.73;8.93;;;;;;;25.31;100.00;100575.53;21171522;27;20070;-80
2023/07/05 04:42:20;;;;;;;11.05;8.30;;;;;;;25.98;100.00;100574.06;21222599;27;20544;-80
2023/07/05 04:52:43;;;;;;;9.43;6.82;;;;;;;26.43;100.00;100570.81;21164080;27;20051;-80
2023/07/05 05:03:07;;;;;;;11.38;7.25;;;;;;;27.25;100.00;100560.88;21198578;27;20051;-81
2023/07/05 05:13:32;;;;;;;10.23;6.93;;;;;;;28.08;100.00;100561.47;21202185;27;20078;-80
2023/07/05 05:23:57;;;;;;;13.80;6.60;;;;;;;28.70;100.00;100562.16;21197779;27;20047;-81
2023/07/05 05:34:20;;;;;;;10.45;6.93;;;;;;;29.24;100.00;100563.25;21207944;27;20050;-82
2023/07/05 05:44:44;;;;;;;8.05;6.10;;;;;;;29.74;99.44;100567.22;21180882;27;20515;-82
2023/07/05 05:55:07;;;;;;;10.85;5.70;;;;;;;30.25;90.10;100559.25;21207041;27;20053;-82
2023/07/05 06:05:33;;;;;;;7.63;5.57;;;;;;;30.93;76.95;100554.38;21121861;27;20073;-82
2023/07/05 06:15:56;;;;;;;9.50;5.20;;;;;;;32.00;72.98;100566.41;21194779;27;20051;-82
2023/07/05 06:26:00;;;;;;;8.70;5.45;;;;;;;33.13;57.93;100570.19;21198289;27;20498;-82
2023/07/05 06:36:03;;;;;;;8.60;5.23;;;;;;;33.89;49.97;100565.72;21209322;27;20035;-83
2023/07/05 06:46:27;;;;;;;7.80;4.20;;;;;;;34.54;45.84;100560.06;21181830;27;20047;-84
2023/07/05 06:56:49;;;;;;;7.13;4.35;;;;;;;35.12;41.44;100554.91;21184303;27;20072;-83
2023/07/05 07:07:14;;;;;;;6.43;4.60;;;;;;;35.41;39.34;100553.16;21177288;27;20103;-82
2023/07/05 07:17:37;;;;;;;7.03;4.07;;;;;;;34.91;41.45;100563.22;21204683;27;20051;-82
2023/07/05 07:28:02;;;;;;;7.03;5.28;;;;;;;34.67;47.55;100559.84;21197138;27;20115;-82
2023/07/05 07:38:25;;;;;;;7.72;4.68;;;;;;;34.79;47.33;100550.56;21221758;27;20043;-82
2023/07/05 07:48:53;;;;;;;9.82;5.05;;;;;;;34.69;50.81;100546.88;21206266;27;20055;-84
2023/07/05 07:59:17;;;;;;;9.90;5.43;;;;;;;34.86;49.26;100546.25;21209317;27;20103;-83
2023/07/05 08:09:42;;;;;;;8.98;4.85;;;;;;;34.94;48.79;100543.72;21209345;27;20138;-83
2023/07/05 08:20:05;;;;;;;9.00;5.43;;;;;;;35.39;44.45;100544.19;21196826;27;20055;-84
2023/07/05 08:30:30;;;;;;;10.02;5.95;;;;;;;35.36;44.50;100544.50;21205623;27;20078;-83
2023/07/05 08:40:58;;;;;;;8.23;5.00;;;;;;;35.69;44.97;100548.78;21206029;27;20514;-82
2023/07/05 08:51:23;;;;;;;9.52;5.22;;;;;;;36.01;44.52;100562.25;21191933;27;20050;-82
2023/07/05 09:01:45;;;;;;;7.70;4.85;;;;;;;36.36;44.50;100574.59;21210700;27;20096;-80
2023/07/05 09:12:22;;;;;;;9.25;5.25;;;;;;;36.59;42.94;100564.97;21172695;27;20564;-82
2023/07/05 09:22:33;;;;;;;8.50;4.90;;;;;;;36.64;41.64;100573.66;21170507;27;20066;-81
2023/07/05 09:33:06;;;;;;;7.80;5.03;;;;;;;37.17;39.73;100573.09;21165373;27;20051;-82
2023/07/05 09:43:31;;;;;;;8.90;4.93;;;;;;;37.25;38.71;100567.69;21126459;27;20040;-81
2023/07/05 09:53:58;;;;;;;7.50;4.45;;;;;;;37.38;37.66;100566.31;21137453;27;20048;-81
2023/07/05 10:04:06;;;;;;;7.55;4.05;;;;;;;37.36;36.82;100568.34;21185554;28;20080;-81
2023/07/05 10:14:35;;;;;;;9.27;4.82;;;;;;;37.58;36.75;100564.34;21159149;28;20044;-81
2023/07/05 10:25:02;;;;;;;8.70;4.60;;;;;;;37.21;36.69;100561.66;21112685;28;20063;-82
2023/07/05 10:35:28;;;;;;;9.50;4.55;;;;;;;37.36;36.06;100560.09;21125193;28;20517;-81
2023/07/05 10:45:51;;;;;;;6.72;4.50;;;;;;;37.62;35.49;100559.38;21103221;28;20052;-82
2023/07/05 10:56:24;;;;;;;8.75;5.03;;;;;;;37.77;36.25;100558.72;21106810;27;20058;-82
2023/07/05 11:06:49;;;;;;;12.10;5.00;;;;;;;37.74;35.56;100550.78;21118057;27;20496;-77
2023/07/05 11:17:23;;;;;;;9.40;4.55;;;;;;;37.47;36.32;100559.91;21165489;27;20054;-77
2023/07/05 11:27:54;;;;;;;8.40;4.90;;;;;;;37.31;35.76;100547.81;21211512;27;20057;-79
2023/07/05 11:37:58;;;;;;;6.63;4.70;;;;;;;37.08;36.36;100559.22;21230326;27;20091;-80
2023/07/05 11:48:39;;;;;;;8.27;5.28;;;;;;;36.90;36.47;100543.59;21225360;27;20143;-78
2023/07/05 11:59:07;;;;;;;7.47;5.30;;;;;;;36.51;36.64;100543.69;21209861;27;20544;-78
2023/07/05 12:09:16;;;;;;;10.00;5.70;;;;;;;36.52;36.52;100530.81;21211613;27;20429;-79
2023/07/05 12:19:40;;;;;;;9.13;5.70;;;;;;;36.03;36.75;100537.38;21205772;27;20407;-78
2023/07/05 12:30:04;;;;;;;12.53;5.90;;;;;;;36.25;36.30;100528.84;21215888;27;20055;-79
2023/07/05 12:40:33;;;;;;;9.45;5.22;;;;;;;36.82;35.65;100538.00;21219966;27;20042;-78
2023/07/05 12:51:03;;;;;;;11.63;5.40;;;;;;;37.16;35.08;100521.78;21198664;27;20051;-78
2023/07/05 13:01:32;;;;;;;7.50;4.63;;;;;;;37.32;34.75;100508.22;21209505;27;20051;-77
2023/07/05 13:11:59;;;;;;;7.85;4.90;;;;;;;37.37;35.18;100505.88;21207044;27;20110;-79
2023/07/05 13:22:26;;;;;;;11.23;5.22;;;;;;;37.34;35.06;100490.53;21216678;27;20548;-81
2023/07/05 13:32:52;;;;;;;8.43;5.03;;;;;;;36.89;35.60;100484.09;21200069;27;20047;-79
2023/07/05 13:43:17;;;;;;;8.25;5.57;;;;;;;36.62;35.79;100482.13;21200202;27;20043;-80
2023/07/05 13:53:39;;;;;;;8.30;5.40;;;;;;;36.28;36.33;100476.28;21197201;27;20047;-80
2023/07/05 14:04:05;;;;;;;8.52;5.20;;;;;;;36.27;36.75;100453.44;21188604;27;20057;-80
2023/07/05 14:14:28;;;;;;;11.80;5.45;;;;;;;36.42;36.28;100451.06;21198709;27;20533;-81
2023/07/05 14:24:52;;;;;;;10.55;5.40;;;;;;;36.37;36.88;100442.38;21207043;27;20046;-79
2023/07/05 14:35:17;;;;;;;8.17;5.73;;;;;;;36.17;37.54;100433.31;21218332;27;20043;-79
2023/07/05 14:45:44;;;;;;;7.72;5.47;;;;;;;36.00;37.94;100422.19;21226128;27;20403;-76
2023/07/05 14:55:47;;;;;;;7.40;5.25;;;;;;;35.87;38.20;100417.00;21226754;27;20415;-79
2023/07/05 15:06:11;;;;;;;10.32;5.35;;;;;;;35.51;38.49;100407.63;21199274;27;20103;-79
2023/07/05 15:16:34;;;;;;;10.87;6.30;;;;;;;34.98;38.75;100401.59;21207765;27;20399;-80
2023/07/05 15:26:58;;;;;;;9.55;5.63;;;;;;;34.52;39.09;100378.34;21223206;27;20141;-81
2023/07/05 15:37:21;;;;;;;10.38;6.13;;;;;;;33.80;39.77;100386.59;21167824;27;20043;-80
2023/07/05 15:47:47;;;;;;;9.15;5.53;;;;;;;33.19;40.17;100380.88;21188200;27;20104;-80
2023/07/05 15:58:19;;;;;;;10.02;5.53;;;;;;;32.56;40.63;100378.00;21169032;27;20139;-79
2023/07/05 16:08:44;;;;;;;12.05;7.00;;;;;;;32.11;42.54;100369.75;21173982;27;20131;-80
2023/07/05 16:19:06;;;;;;;9.25;6.45;;;;;;;31.81;43.56;100374.94;21197771;27;20054;-79
2023/07/05 16:29:31;;;;;;;9.43;5.90;;;;;;;31.49;44.85;100378.28;21210140;27;20557;-80
2023/07/05 16:39:54;;;;;;;13.90;6.45;;;;;;;31.32;46.38;100375.97;21192308;27;20059;-80
2023/07/05 16:50:16;;;;;;;11.18;6.53;;;;;;;31.07;48.61;100376.97;21222441;27;20082;-80
2023/07/05 17:00:38;;;;;;;10.82;6.53;;;;;;;30.83;52.00;100385.13;21201139;27;20061;-80
2023/07/05 17:11:04;;;;;;;11.75;6.82;;;;;;;30.59;55.85;100386.91;21203857;27;20437;-80
2023/07/05 17:21:27;;;;;;;11.43;7.20;;;;;;;30.04;68.53;100377.28;21220495;27;20047;-80
2023/07/05 17:31:53;;;;;;;11.98;7.78;;;;;;;29.72;78.71;100400.44;21207175;27;20066;-79
2023/07/05 17:42:18;;;;;;;13.98;8.63;;;;;;;29.57;83.14;100401.50;21166085;27;20074;-79
2023/07/05 17:52:42;;;;;;;13.77;9.35;;;;;;;29.30;88.38;100398.78;21198625;27;20051;-80
2023/07/05 18:03:05;;;;;;;12.25;9.20;;;;;;;28.98;93.92;100403.66;21207743;27;20053;-80
2023/07/05 18:13:31;;;;;;;13.30;8.52;;;;;;;28.80;95.84;100405.75;21192012;27;20059;-79
2023/07/05 18:23:54;;;;;;;13.27;8.82;;;;;;;28.49;100.00;100422.25;21196804;28;20134;-78
2023/07/05 18:34:18;;;;;;;13.57;9.02;;;;;;;28.42;100.00;100442.66;21192162;28;20075;-79
2023/07/05 18:44:43;;;;;;;15.55;9.68;;;;;;;28.28;100.00;100446.22;21163255;28;20048;-79
2023/07/05 18:54:47;;;;;;;16.02;9.90;;;;;;;28.12;100.00;100457.13;21172327;28;20488;-79
2023/07/05 19:05:10;;;;;;;14.85;9.85;;;;;;;28.04;100.00;100469.41;21111892;28;20052;-79
2023/07/05 19:15:34;;;;;;;14.65;10.10;;;;;;;27.98;100.00;100475.22;21131649;27;20142;-78
2023/07/05 19:25:58;;;;;;;26.60;18.63;;;;;;;27.23;100.00;100479.69;21144568;27;20040;-79
2023/07/05 19:36:25;;;;;;;13.07;9.90;;;;;;;27.05;100.00;100483.41;21114399;28;20139;-79
2023/07/05 19:46:47;;;;;;;13.57;10.57;;;;;;;27.06;100.00;100501.44;21139208;28;20116;-80
2023/07/05 19:57:12;;;;;;;14.35;10.52;;;;;;;26.87;100.00;100515.09;21106860;28;20649;-79
2023/07/05 20:07:18;;;;;;;14.65;10.73;;;;;;;26.76;100.00;100514.84;21136454;27;20176;-80
2023/07/05 20:17:43;;;;;;;15.77;10.98;;;;;;;26.33;100.00;100515.41;21176955;27;20047;-80
2023/07/05 20:28:06;;;;;;;13.43;10.15;;;;;;;26.22;100.00;100523.19;21206237;27;20449;-79
2023/07/05 20:38:31;;;;;;;14.70;10.70;;;;;;;26.00;100.00;100527.00;21219051;27;20051;-78
2023/07/05 20:48:55;;;;;;;15.32;10.35;;;;;;;26.03;100.00;100540.41;21203638;27;20156;-80
2023/07/05 20:59:01;;;;;;;13.73;10.13;;;;;;;26.00;100.00;100540.53;21217441;27;20043;-79
2023/07/05 21:09:24;;;;;;;13.32;9.82;;;;;;;25.56;100.00;100537.38;21197845;27;20395;-79
2023/07/05 21:19:48;;;;;;;14.00;10.07;;;;;;;25.64;100.00;100531.63;21201173;27;20546;-78
2023/07/05 21:30:11;;;;;;;13.35;9.40;;;;;;;25.35;100.00;100527.59;21217638;27;20055;-78
2023/07/05 21:40:38;;;;;;;13.52;10.00;;;;;;;25.34;100.00;100525.84;21199979;27;20426;-80
2023/07/05 21:51:01;;;;;;;13.77;9.40;;;;;;;25.63;100.00;100503.69;21219807;27;20071;-79
2023/07/05 22:01:26;;;;;;;14.15;9.45;;;;;;;25.48;100.00;100485.50;21199563;27;20092;-79
2023/07/05 22:11:49;;;;;;;12.55;9.20;;;;;;;25.62;100.00;100482.13;21193110;27;20078;-78
2023/07/05 22:22:14;;;;;;;14.95;9.85;;;;;;;25.00;100.00;100468.09;21210574;27;20054;-78
2023/07/05 22:32:37;;;;;;;12.73;8.52;;;;;;;24.60;100.00;100468.19;21197959;27;20093;-79
2023/07/05 22:43:01;;;;;;;13.95;10.07;;;;;;;24.39;100.00;100461.09;21215769;27;20103;-78
2023/07/05 22:53:24;;;;;;;13.07;9.23;;;;;;;24.47;100.00;100462.50;21213742;27;20043;-77
2023/07/05 23:03:39;;;;;;;13.55;9.90;;;;;;;24.45;100.00;100450.00;21237653;27;20063;-78
2023/07/05 23:14:01;;;;;;;12.88;9.90;;;;;;;24.31;100.00;100442.53;21192520;27;20142;-78
2023/07/05 23:24:27;;;;;;;12.68;9.30;;;;;;;24.68;100.00;100432.75;21169913;27;20134;-78
2023/07/05 23:34:50;;;;;;;12.30;9.43;;;;;;;24.53;100.00;100416.31;21142581;27;20044;-77
2023/07/05 23:45:14;;;;;;;12.35;10.25;;;;;;;24.38;100.00;100406.22;21157347;27;20051;-79
2023/07/05 23:55:37;;;;;;;12.18;9.55;;;;;;;23.95;100.00;100385.75;21166742;27;20046;-79
